createdAt,value
2018-08-13T00:02:12.892Z,1.60
2018-08-13T00:04:41.373Z,1.23
2018-08-13T00:07:10.800Z,1.60
2018-08-13T00:09:41.342Z,1.80
2018-08-13T00:12:10.596Z,1.90
2018-08-13T00:14:39.299Z,1.70
2018-08-13T00:17:08.071Z,1.60
2018-08-13T00:19:36.766Z,1.90
2018-08-13T00:22:05.627Z,1.63
2018-08-13T00:24:34.217Z,1.47
2018-08-13T00:27:02.709Z,1.60
2018-08-13T00:29:31.204Z,1.80
2018-08-13T00:31:59.687Z,1.73
2018-08-13T00:34:28.140Z,1.70
2018-08-13T00:36:56.658Z,1.80
2018-08-13T00:39:25.166Z,1.70
2018-08-13T00:41:53.662Z,1.87
2018-08-13T00:44:22.117Z,1.60
2018-08-13T00:46:50.644Z,1.67
2018-08-13T00:49:19.080Z,1.50
2018-08-13T00:51:47.617Z,1.90
2018-08-13T00:54:16.104Z,1.60
2018-08-13T00:56:44.620Z,1.53
2018-08-13T00:59:13.123Z,1.70
2018-08-13T01:01:41.653Z,1.90
2018-08-13T01:04:10.134Z,1.60
2018-08-13T01:06:38.808Z,1.53
2018-08-13T01:09:08.593Z,1.50
2018-08-13T01:11:37.049Z,1.70
2018-08-13T01:14:05.831Z,1.60
2018-08-13T01:16:34.338Z,1.70
2018-08-13T01:19:02.828Z,2.20
2018-08-13T01:21:31.328Z,1.80
2018-08-13T01:23:59.773Z,1.87
2018-08-13T01:26:28.273Z,1.80
2018-08-13T01:28:56.774Z,2.03
2018-08-13T01:31:25.302Z,2.10
2018-08-13T01:33:53.841Z,1.90
2018-08-13T01:36:22.386Z,1.80
2018-08-13T01:38:50.917Z,1.87
2018-08-13T01:41:19.435Z,1.93
2018-08-13T01:43:47.938Z,1.90
2018-08-13T01:46:16.550Z,2.50
2018-08-13T01:48:45.022Z,1.80
2018-08-13T01:51:13.462Z,2.07
2018-08-13T01:53:41.978Z,2.20
2018-08-13T01:56:10.489Z,2.10
2018-08-13T01:58:39.008Z,2.07
2018-08-13T02:01:07.582Z,1.93
2018-08-13T02:03:36.050Z,2.20
2018-08-13T02:06:04.598Z,2.00
2018-08-13T02:08:33.162Z,1.93
2018-08-13T02:11:01.757Z,1.90
2018-08-13T02:13:30.225Z,2.20
2018-08-13T02:15:58.705Z,2.00
2018-08-13T02:18:27.207Z,1.97
2018-08-13T02:20:55.764Z,2.53
2018-08-13T02:23:24.271Z,2.10
2018-08-13T02:25:52.798Z,1.90
2018-08-13T02:28:21.285Z,2.13
2018-08-13T02:30:49.755Z,2.27
2018-08-13T02:33:18.309Z,2.10
2018-08-13T02:35:46.775Z,1.90
2018-08-13T02:38:15.654Z,2.30
2018-08-13T02:40:44.168Z,2.10
2018-08-13T02:43:12.652Z,1.90
2018-08-13T02:45:41.123Z,2.00
2018-08-13T02:48:09.608Z,2.20
2018-08-13T02:50:38.094Z,2.07
2018-08-13T02:53:06.763Z,2.20
2018-08-13T02:55:35.241Z,2.23
2018-08-13T02:58:03.868Z,2.00
2018-08-13T03:00:32.356Z,2.03
2018-08-13T03:03:00.902Z,2.00
2018-08-13T03:05:29.424Z,2.10
2018-08-13T03:07:57.986Z,2.20
2018-08-13T03:10:26.594Z,2.20
2018-08-13T03:12:55.094Z,2.00
2018-08-13T03:15:23.595Z,2.30
2018-08-13T03:17:52.145Z,1.93
2018-08-13T03:20:20.653Z,2.27
2018-08-13T03:22:49.182Z,2.10
2018-08-13T03:25:17.660Z,2.10
2018-08-13T03:27:46.116Z,2.10
2018-08-13T03:30:14.609Z,2.10
2018-08-13T03:32:43.106Z,2.53
2018-08-13T03:35:11.563Z,2.20
2018-08-13T03:37:40.310Z,2.47
2018-08-13T03:40:10.918Z,2.33
2018-08-13T03:42:39.563Z,2.17
2018-08-13T03:45:09.694Z,2.40
2018-08-13T03:47:38.376Z,2.30
2018-08-13T03:50:07.945Z,2.33
2018-08-13T03:52:36.425Z,2.20
2018-08-13T03:55:06.137Z,2.47
2018-08-13T03:57:34.584Z,2.20
2018-08-13T04:00:03.184Z,2.20
2018-08-13T04:02:31.679Z,2.20
2018-08-13T04:05:00.196Z,2.50
2018-08-13T04:07:28.878Z,2.07
2018-08-13T04:09:57.393Z,2.30
2018-08-13T04:12:25.852Z,2.40
2018-08-13T04:14:54.345Z,2.30
2018-08-13T04:17:22.835Z,2.10
2018-08-13T04:19:51.318Z,2.30
2018-08-13T04:22:19.807Z,2.30
2018-08-13T04:24:48.291Z,2.33
2018-08-13T04:27:16.749Z,2.10
2018-08-13T04:29:45.233Z,2.27
2018-08-13T04:32:13.729Z,2.43
2018-08-13T04:34:42.225Z,2.50
2018-08-13T04:37:10.690Z,2.67
2018-08-13T04:39:39.164Z,2.33
2018-08-13T04:42:07.618Z,2.17
2018-08-13T04:44:36.112Z,2.57
2018-08-13T04:47:04.569Z,2.60
2018-08-13T04:49:33.029Z,2.63
2018-08-13T04:52:01.554Z,2.60
2018-08-13T04:54:30.026Z,2.67
2018-08-13T04:56:58.494Z,2.60
2018-08-13T04:59:27.016Z,2.60
2018-08-13T05:01:55.444Z,2.60
2018-08-13T05:04:23.945Z,2.50
2018-08-13T05:06:52.428Z,2.33
2018-08-13T05:09:20.974Z,2.43
2018-08-13T05:11:49.434Z,2.40
2018-08-13T05:14:18.210Z,2.30
2018-08-13T05:16:46.692Z,2.47
2018-08-13T05:19:15.250Z,2.20
2018-08-13T05:21:43.708Z,2.33
2018-08-13T05:24:12.210Z,2.77
2018-08-13T05:26:40.755Z,2.60
2018-08-13T05:29:09.265Z,2.33
2018-08-13T05:31:37.716Z,2.20
2018-08-13T05:34:06.225Z,2.10
2018-08-13T05:36:34.725Z,2.37
2018-08-13T05:39:03.466Z,2.50
2018-08-13T05:41:31.942Z,2.50
2018-08-13T05:44:00.389Z,2.40
2018-08-13T05:46:28.861Z,2.43
2018-08-13T05:48:57.334Z,2.20
2018-08-13T05:51:25.829Z,2.23
2018-08-13T05:53:54.279Z,2.10
2018-08-13T05:56:22.795Z,2.30
2018-08-13T05:58:51.249Z,2.10
2018-08-13T06:01:19.758Z,2.03
2018-08-13T06:03:48.186Z,2.17
2018-08-13T06:06:16.913Z,2.20
2018-08-13T06:08:45.476Z,2.27
2018-08-13T06:11:13.998Z,2.20
2018-08-13T06:13:42.422Z,2.23
2018-08-13T06:16:10.955Z,2.20
2018-08-13T06:18:42.325Z,2.10
2018-08-13T06:21:10.789Z,2.10
2018-08-13T06:23:39.283Z,2.13
2018-08-13T06:26:07.814Z,2.00
2018-08-13T06:28:36.291Z,2.13
2018-08-13T06:31:04.876Z,2.20
2018-08-13T06:33:33.331Z,2.03
2018-08-13T06:36:01.787Z,2.33
2018-08-13T06:38:30.233Z,1.97
2018-08-13T06:40:58.724Z,2.23
2018-08-13T06:43:27.288Z,2.10
2018-08-13T06:45:55.830Z,2.07
2018-08-13T06:48:24.319Z,2.00
2018-08-13T06:50:52.805Z,2.40
2018-08-13T06:53:21.260Z,2.37
2018-08-13T06:55:49.780Z,2.00
2018-08-13T06:58:18.213Z,2.17
2018-08-13T07:00:46.817Z,1.90
2018-08-13T07:03:15.240Z,2.10
2018-08-13T07:05:43.743Z,2.20
2018-08-13T07:08:12.235Z,2.23
2018-08-13T07:10:40.745Z,2.10
2018-08-13T07:13:09.280Z,2.30
2018-08-13T07:15:37.829Z,2.00
2018-08-13T07:18:06.380Z,2.30
2018-08-13T07:20:34.949Z,2.20
2018-08-13T07:23:03.501Z,2.17
2018-08-13T07:25:31.981Z,2.93
2018-08-13T07:28:00.501Z,2.10
2018-08-13T07:30:29.083Z,2.00
2018-08-13T07:32:57.561Z,2.00
2018-08-13T07:35:26.037Z,2.23
2018-08-13T07:37:54.556Z,2.10
2018-08-13T07:40:23.015Z,2.57
2018-08-13T07:42:51.466Z,1.70
2018-08-13T07:45:19.921Z,2.00
2018-08-13T07:47:48.401Z,1.90
2018-08-13T07:50:16.973Z,2.03
2018-08-13T07:52:45.483Z,1.75
2018-08-13T07:55:14.183Z,1.90
2018-08-13T07:57:42.728Z,1.80
2018-08-13T08:00:16.722Z,2.08
2018-08-13T08:02:45.247Z,1.50
2018-08-13T08:05:13.922Z,1.70
2018-08-13T08:07:42.569Z,1.70
2018-08-13T08:10:13.175Z,1.62
2018-08-13T08:12:42.058Z,1.70
2018-08-13T08:15:12.792Z,1.52
2018-08-13T08:17:41.440Z,1.82
2018-08-13T08:20:09.990Z,1.85
2018-08-13T08:22:38.985Z,1.62
2018-08-13T08:25:10.366Z,1.40
2018-08-13T08:27:38.844Z,1.50
2018-08-13T08:30:09.685Z,1.52
2018-08-13T08:32:38.699Z,1.40
2018-08-13T08:35:09.543Z,1.70
2018-08-13T08:37:39.050Z,1.47
2018-08-13T08:40:11.149Z,1.40
2018-08-13T08:42:39.697Z,1.37
2018-08-13T08:45:14.553Z,1.57
2018-08-13T08:47:43.515Z,1.52
2018-08-13T08:50:12.305Z,1.30
2018-08-13T08:52:40.815Z,1.22
2018-08-13T08:55:09.365Z,1.15
2018-08-13T08:57:38.491Z,1.35
2018-08-13T09:00:09.964Z,1.20
2018-08-13T09:02:38.401Z,1.40
2018-08-13T09:05:07.931Z,1.20
2018-08-13T09:07:36.645Z,1.60
2018-08-13T09:10:05.855Z,1.50
2018-08-13T09:12:34.372Z,1.27
2018-08-13T09:15:02.854Z,1.40
2018-08-13T09:17:43.484Z,1.80
2018-08-13T09:20:23.133Z,1.90
2018-08-13T09:23:02.839Z,1.80
2018-08-13T09:25:42.706Z,1.82
2018-08-13T09:28:22.248Z,1.47
2018-08-13T09:31:02.015Z,1.90
2018-08-13T09:33:41.972Z,1.67
2018-08-13T09:36:10.589Z,1.50
2018-08-13T09:38:39.089Z,1.40
2018-08-13T09:41:07.594Z,1.30
2018-08-13T09:43:36.100Z,1.30
2018-08-13T09:46:04.625Z,1.30
2018-08-13T09:48:33.256Z,1.77
2018-08-13T09:51:01.724Z,1.98
2018-08-13T09:53:30.257Z,1.30
2018-08-13T09:55:58.747Z,1.32
2018-08-13T09:58:27.285Z,1.22
2018-08-13T10:01:01.118Z,2.02
2018-08-13T10:03:30.060Z,1.47
2018-08-13T10:06:00.161Z,1.40
2018-08-13T10:08:29.216Z,1.40
2018-08-13T10:10:57.812Z,1.40
2018-08-13T10:13:26.235Z,1.82
2018-08-13T10:15:54.753Z,2.02
2018-08-13T10:18:23.243Z,1.62
2018-08-13T10:20:51.727Z,1.77
2018-08-13T10:23:20.267Z,1.70
2018-08-13T10:25:48.725Z,1.90
2018-08-13T10:28:17.226Z,1.72
2018-08-13T10:30:45.731Z,1.70
2018-08-13T10:33:14.262Z,1.40
2018-08-13T10:35:44.814Z,1.80
2018-08-13T10:38:13.379Z,1.80
2018-08-13T10:40:41.874Z,1.80
2018-08-13T10:43:10.403Z,1.60
2018-08-13T10:45:38.882Z,1.95
2018-08-13T10:48:07.522Z,2.00
2018-08-13T10:50:35.990Z,1.65
2018-08-13T10:53:04.562Z,1.60
2018-08-13T10:55:33.103Z,1.98
2018-08-13T10:58:01.693Z,2.00
2018-08-13T11:00:30.173Z,1.47
2018-08-13T11:02:58.823Z,1.72
2018-08-13T11:05:27.231Z,1.77
2018-08-13T11:07:55.831Z,1.50
2018-08-13T11:10:24.413Z,1.75
2018-08-13T11:12:52.887Z,1.57
2018-08-13T11:15:21.421Z,1.50
2018-08-13T11:17:49.930Z,1.80
2018-08-13T11:20:18.403Z,1.90
2018-08-13T11:22:47.229Z,1.40
2018-08-13T11:25:16.305Z,1.70
2018-08-13T11:27:44.803Z,1.62
2018-08-13T11:30:14.855Z,1.67
2018-08-13T11:32:43.531Z,1.45
2018-08-13T11:35:12.433Z,1.70
2018-08-13T11:37:40.923Z,1.50
2018-08-13T11:40:14.768Z,2.10
2018-08-13T11:42:43.417Z,1.50
2018-08-13T11:45:11.874Z,1.47
2018-08-13T11:47:40.795Z,1.60
2018-08-13T11:50:17.075Z,1.50
2018-08-13T11:52:48.125Z,1.75
2018-08-13T11:55:17.185Z,1.62
2018-08-13T11:57:46.284Z,1.65
2018-08-13T12:00:14.938Z,1.60
2018-08-13T12:02:43.506Z,1.80
2018-08-13T12:05:13.436Z,1.70
2018-08-13T12:07:42.332Z,1.95
2018-08-13T12:10:11.683Z,1.98
2018-08-13T12:12:41.145Z,1.70
2018-08-13T12:15:10.699Z,1.82
2018-08-13T12:17:39.552Z,1.52
2018-08-13T12:20:12.056Z,1.90
2018-08-13T12:22:40.650Z,1.90
2018-08-13T12:25:09.721Z,1.60
2018-08-13T12:27:38.185Z,1.80
2018-08-13T12:30:09.010Z,1.85
2018-08-13T12:32:37.459Z,1.62
2018-08-13T12:35:06.180Z,1.50
2018-08-13T12:37:34.664Z,1.62
2018-08-13T12:40:03.220Z,1.50
2018-08-13T12:42:31.683Z,1.92
2018-08-13T12:45:00.197Z,1.55
2018-08-13T12:47:28.649Z,1.90
2018-08-13T12:49:57.200Z,1.75
2018-08-13T12:52:25.661Z,1.67
2018-08-13T12:54:54.257Z,2.00
2018-08-13T12:57:22.739Z,1.70
2018-08-13T12:59:51.265Z,1.90
2018-08-13T13:02:19.763Z,1.72
2018-08-13T13:04:48.211Z,1.60
2018-08-13T13:07:16.726Z,2.15
2018-08-13T13:09:45.230Z,1.87
2018-08-13T13:12:13.694Z,2.27
2018-08-13T13:14:42.218Z,2.00
2018-08-13T13:17:10.732Z,1.80
2018-08-13T13:19:39.362Z,2.00
2018-08-13T13:22:07.909Z,2.17
2018-08-13T13:24:36.367Z,2.22
2018-08-13T13:27:04.890Z,1.47
2018-08-13T13:29:33.374Z,2.00
2018-08-13T13:32:01.853Z,1.70
2018-08-13T13:34:30.370Z,1.90
2018-08-13T13:36:58.905Z,1.92
2018-08-13T13:39:28.028Z,1.95
2018-08-13T13:41:57.306Z,1.50
2018-08-13T13:44:25.829Z,1.70
2018-08-13T13:46:54.326Z,1.50
2018-08-13T13:49:23.154Z,2.67
2018-08-13T13:51:51.700Z,1.60
2018-08-13T13:54:20.109Z,1.82
2018-08-13T13:56:48.681Z,2.00
2018-08-13T13:59:17.131Z,1.80
2018-08-13T14:01:45.597Z,1.67
2018-08-13T14:04:14.326Z,1.80
2018-08-13T14:06:42.842Z,1.80
2018-08-13T14:09:11.828Z,1.90
2018-08-13T14:11:40.335Z,1.62
2018-08-13T14:14:09.877Z,1.63
2018-08-13T14:16:38.471Z,1.70
2018-08-13T14:19:07.574Z,2.10
2018-08-13T14:21:36.078Z,1.93
2018-08-13T14:24:04.598Z,1.62
2018-08-13T14:26:34.316Z,1.70
2018-08-13T14:29:02.811Z,1.50
2018-08-13T14:31:31.340Z,1.30
2018-08-13T14:33:59.802Z,1.50
2018-08-13T14:36:28.317Z,1.60
2018-08-13T14:38:56.830Z,1.67
2018-08-13T14:41:25.381Z,1.77
2018-08-13T14:43:53.880Z,1.63
2018-08-13T14:46:22.360Z,1.80
2018-08-13T14:48:50.833Z,1.73
2018-08-13T14:51:19.372Z,1.67
2018-08-13T14:53:47.810Z,1.80
2018-08-13T14:56:16.332Z,1.50
2018-08-13T14:58:44.842Z,1.47
2018-08-13T15:01:13.310Z,2.40
2018-08-13T15:03:41.794Z,1.60
2018-08-13T15:06:10.282Z,1.40
2018-08-13T15:08:38.831Z,1.67
2018-08-13T15:11:07.306Z,1.60
2018-08-13T15:13:36.051Z,1.40
2018-08-13T15:16:04.569Z,1.43
2018-08-13T15:18:33.032Z,1.70
2018-08-13T15:21:01.527Z,1.87
2018-08-13T15:23:30.008Z,1.70
2018-08-13T15:25:58.535Z,1.57
2018-08-13T15:28:27.052Z,1.80
2018-08-13T15:30:55.564Z,1.90
2018-08-13T15:33:24.053Z,1.77
2018-08-13T15:35:52.516Z,1.67
2018-08-13T15:38:21.016Z,1.53
2018-08-13T15:40:49.502Z,1.70
2018-08-13T15:43:17.969Z,1.77
2018-08-13T15:45:46.497Z,1.87
2018-08-13T15:48:14.965Z,1.90
2018-08-13T15:50:43.515Z,1.90
2018-08-13T15:53:12.182Z,1.67
2018-08-13T15:55:40.721Z,1.97
2018-08-13T15:58:09.723Z,1.70
2018-08-13T16:00:38.235Z,1.63
2018-08-13T16:03:07.764Z,1.33
2018-08-13T16:05:36.576Z,1.43
2018-08-13T16:08:05.161Z,2.00
2018-08-13T16:10:34.288Z,1.77
2018-08-13T16:13:02.798Z,1.70
2018-08-13T16:15:31.387Z,1.93
2018-08-13T16:18:00.100Z,1.77
2018-08-13T16:20:28.610Z,1.80
2018-08-13T16:22:57.190Z,1.67
2018-08-13T16:25:25.734Z,2.03
2018-08-13T16:27:54.242Z,1.57
2018-08-13T16:30:26.612Z,1.77
2018-08-13T16:32:55.092Z,1.80
2018-08-13T16:35:24.241Z,1.57
2018-08-13T16:38:12.004Z,2.10
2018-08-13T16:40:41.138Z,1.87
2018-08-13T16:43:09.671Z,1.67
2018-08-13T16:45:38.182Z,2.10
2018-08-13T16:48:06.680Z,1.87
2018-08-13T16:50:35.182Z,1.87
2018-08-13T16:53:03.718Z,1.63
2018-08-13T16:55:33.109Z,1.80
2018-08-13T16:58:02.260Z,1.50
2018-08-13T17:00:31.804Z,1.77
2018-08-13T17:03:01.088Z,1.70
2018-08-13T17:05:31.310Z,1.80
2018-08-13T17:07:59.910Z,2.27
2018-08-13T17:10:29.297Z,1.60
2018-08-13T17:12:58.565Z,1.80
2018-08-13T17:15:28.726Z,1.50
2018-08-13T17:17:58.349Z,1.63
2018-08-13T17:20:32.539Z,1.70
2018-08-13T17:23:01.104Z,1.57
2018-08-13T17:25:30.109Z,1.80
2018-08-13T17:27:58.598Z,1.33
2018-08-13T17:30:27.574Z,1.80
2018-08-13T17:32:57.312Z,2.00
2018-08-13T17:35:28.835Z,1.77
2018-08-13T17:37:57.621Z,1.90
2018-08-13T17:40:26.448Z,1.63
2018-08-13T17:42:55.752Z,2.20
2018-08-13T17:45:24.589Z,1.73
2018-08-13T17:47:53.102Z,1.60
2018-08-13T17:50:22.079Z,1.60
2018-08-13T17:52:51.773Z,1.67
2018-08-13T17:55:20.348Z,1.60
2018-08-13T17:57:48.947Z,1.63
2018-08-13T18:00:19.861Z,2.10
2018-08-13T18:02:48.403Z,1.90
2018-08-13T18:05:19.290Z,1.90
2018-08-13T18:07:48.173Z,2.00
2018-08-13T18:10:21.268Z,2.20
2018-08-13T18:12:49.818Z,1.90
2018-08-13T18:15:18.381Z,2.07
2018-08-13T18:17:47.619Z,1.90
2018-08-13T18:20:16.130Z,2.07
2018-08-13T18:22:44.854Z,2.10
2018-08-13T18:25:14.201Z,2.17
2018-08-13T18:27:44.363Z,2.23
2018-08-13T18:30:22.538Z,1.90
2018-08-13T18:32:54.933Z,2.07
2018-08-13T18:35:23.549Z,3.13
2018-08-13T18:37:52.128Z,2.40
2018-08-13T18:40:24.653Z,2.27
2018-08-13T18:42:53.190Z,2.00
2018-08-13T18:45:21.855Z,1.80
2018-08-13T18:47:51.097Z,2.37
2018-08-13T18:50:20.838Z,2.13
2018-08-13T18:52:49.508Z,2.10
2018-08-13T18:55:22.590Z,1.83
2018-08-13T18:57:51.713Z,2.03
2018-08-13T19:00:25.283Z,2.10
2018-08-13T19:02:54.265Z,2.40
2018-08-13T19:05:23.360Z,2.10
2018-08-13T19:07:52.761Z,2.20
2018-08-13T19:10:21.767Z,2.10
2018-08-13T19:12:50.623Z,2.17
2018-08-13T19:15:21.319Z,2.07
2018-08-13T19:17:50.378Z,2.20
2018-08-13T19:20:19.160Z,2.23
2018-08-13T19:22:47.939Z,2.40
2018-08-13T19:25:21.795Z,2.23
2018-08-13T19:27:50.439Z,2.30
2018-08-13T19:30:19.964Z,2.13
2018-08-13T19:32:49.530Z,2.07
2018-08-13T19:35:18.053Z,2.10
2018-08-13T19:37:47.035Z,2.50
2018-08-13T19:40:17.740Z,3.03
2018-08-13T19:42:47.290Z,2.30
2018-08-13T19:45:16.809Z,2.13
2018-08-13T19:47:46.815Z,2.70
2018-08-13T19:50:15.716Z,2.40
2018-08-13T19:52:45.415Z,2.43
2018-08-13T19:55:14.651Z,2.00
2018-08-13T19:57:43.304Z,2.90
2018-08-13T20:00:17.190Z,2.20
2018-08-13T20:02:45.887Z,2.40
2018-08-13T20:05:14.645Z,2.70
2018-08-13T20:07:43.535Z,2.60
2018-08-13T20:10:13.462Z,2.37
2018-08-13T20:12:43.276Z,2.57
2018-08-13T20:15:11.978Z,2.87
2018-08-13T20:17:41.773Z,2.83
2018-08-13T20:20:14.933Z,2.90
2018-08-13T20:22:44.979Z,3.20
2018-08-13T20:25:14.855Z,3.03
2018-08-13T20:27:43.922Z,3.80
2018-08-13T20:30:15.742Z,3.63
2018-08-13T20:32:45.780Z,3.57
2018-08-13T20:35:14.349Z,3.60
2018-08-13T20:37:43.606Z,3.37
2018-08-13T20:40:14.383Z,3.60
2018-08-13T20:42:43.454Z,3.70
2018-08-13T20:45:14.391Z,4.13
2018-08-13T20:47:43.514Z,3.70
2018-08-13T20:50:16.024Z,3.77
2018-08-13T20:52:45.038Z,3.83
2018-08-13T20:55:17.245Z,3.37
2018-08-13T20:57:46.544Z,3.43
2018-08-13T21:00:16.250Z,3.60
2018-08-13T21:02:46.079Z,3.83
2018-08-13T21:05:14.969Z,3.37
2018-08-13T21:07:43.960Z,3.57
2018-08-13T21:10:14.655Z,3.90
2018-08-13T21:12:43.225Z,3.30
2018-08-13T21:15:15.970Z,3.97
2018-08-13T21:17:44.613Z,4.67
2018-08-13T21:20:18.573Z,4.10
2018-08-13T21:22:47.116Z,4.20
2018-08-13T21:25:15.814Z,4.17
2018-08-13T21:27:44.343Z,3.93
2018-08-13T21:30:13.033Z,4.03
2018-08-13T21:32:42.461Z,4.17
2018-08-13T21:35:11.268Z,4.10
2018-08-13T21:37:39.767Z,3.70
2018-08-13T21:40:09.258Z,3.77
2018-08-13T21:42:37.721Z,3.73
2018-08-13T21:45:07.288Z,3.40
2018-08-13T21:47:35.781Z,3.90
2018-08-13T21:50:06.718Z,3.90
2018-08-13T21:52:35.246Z,4.80
2018-08-13T21:55:03.761Z,3.87
2018-08-13T21:57:32.228Z,4.43
2018-08-13T22:00:00.790Z,4.13
2018-08-13T22:02:29.319Z,3.80
2018-08-13T22:04:57.852Z,4.37
2018-08-13T22:07:26.383Z,4.27
2018-08-13T22:09:54.925Z,4.30
2018-08-13T22:12:23.437Z,4.50
2018-08-13T22:14:51.957Z,4.10
2018-08-13T22:17:20.494Z,3.90
2018-08-13T22:19:48.993Z,4.40
2018-08-13T22:22:17.533Z,4.20
2018-08-13T22:24:57.963Z,4.33
2018-08-13T22:27:26.547Z,3.80
2018-08-13T22:29:55.094Z,4.53
2018-08-13T22:32:23.568Z,4.97
2018-08-13T22:34:52.080Z,5.07
2018-08-13T22:37:20.534Z,4.37
2018-08-13T22:39:49.066Z,4.27
2018-08-13T22:42:17.611Z,4.13
2018-08-13T22:44:46.097Z,4.40
2018-08-13T22:47:14.588Z,4.43
2018-08-13T22:49:43.087Z,3.77
2018-08-13T22:52:11.674Z,4.10
2018-08-13T22:54:40.111Z,4.47
2018-08-13T22:57:08.604Z,4.33
2018-08-13T22:59:37.060Z,4.20
2018-08-13T23:02:05.727Z,4.17
2018-08-13T23:04:34.213Z,4.03
2018-08-13T23:07:02.765Z,3.73
2018-08-13T23:09:31.338Z,4.10
2018-08-13T23:12:00.018Z,4.20
2018-08-13T23:14:28.560Z,3.97
2018-08-13T23:16:57.140Z,4.50
2018-08-13T23:19:25.650Z,4.40
2018-08-13T23:21:54.205Z,4.10
2018-08-13T23:24:22.667Z,3.77
2018-08-13T23:26:51.197Z,4.23
2018-08-13T23:29:19.696Z,3.90
2018-08-13T23:31:48.172Z,4.17
2018-08-13T23:34:16.679Z,3.80
2018-08-13T23:36:45.245Z,5.07
2018-08-13T23:39:14.267Z,4.30
2018-08-13T23:41:43.509Z,4.70
2018-08-13T23:44:12.135Z,3.57
2018-08-13T23:46:41.020Z,4.13
2018-08-13T23:49:09.584Z,4.70
2018-08-13T23:51:38.113Z,4.70
2018-08-13T23:54:06.633Z,3.80
2018-08-13T23:56:35.223Z,4.23
2018-08-13T23:59:03.779Z,4.23
